Weather at Albertville Regional Airport/Thomas J Brumlik Field

Public forecast

Using degrees Fahrenheit for public forecast. Weather courtesy of forecast.io.

Current aviation weather report (METAR) for Albertville Regional Airport/Thomas J Brumlik Field

Retrieved UTC (0 seconds ago):

Closest aviation forecast (TAF) to Albertville Regional Airport/Thomas J Brumlik Field

Forecast is more than 6 hours old.

Closest forecast is Huntsville International Carl T Jones Field, 35.5 nm (65.8 km) NW. Retrieved 2021/03/07 12:45 UTC (10 hours ago):

TAF KHSV 071141Z 0712/0812 03006KT P6SM SKC FM071600 VRB03KT P6SM SCT250 FM080800 00000KT P6SM SKC